sensor_id;sensor_type;location;lat;lon;timestamp;P1;durP1;ratioP1;P2;durP2;ratioP2
17596;SDS011;8917;50.942;6.946;2022-10-16T00:01:05;5.83;;;3.30;;
17596;SDS011;8917;50.942;6.946;2022-10-16T00:03:32;3.50;;;2.53;;
17596;SDS011;8917;50.942;6.946;2022-10-16T00:06:00;3.03;;;2.60;;
17596;SDS011;8917;50.942;6.946;2022-10-16T00:08:27;7.07;;;2.30;;
17596;SDS011;8917;50.942;6.946;2022-10-16T00:10:58;3.43;;;2.23;;
17596;SDS011;8917;50.942;6.946;2022-10-16T00:13:25;4.60;;;2.50;;
17596;SDS011;8917;50.942;6.946;2022-10-16T00:15:54;3.03;;;2.63;;
17596;SDS011;8917;50.942;6.946;2022-10-16T00:18:23;8.33;;;2.90;;
17596;SDS011;8917;50.942;6.946;2022-10-16T00:20:50;3.80;;;2.93;;
17596;SDS011;8917;50.942;6.946;2022-10-16T00:23:18;4.07;;;2.80;;
17596;SDS011;8917;50.942;6.946;2022-10-16T00:25:53;3.63;;;2.60;;
17596;SDS011;8917;50.942;6.946;2022-10-16T00:28:21;3.10;;;2.10;;
17596;SDS011;8917;50.942;6.946;2022-10-16T00:30:48;3.63;;;2.20;;
17596;SDS011;8917;50.942;6.946;2022-10-16T00:33:15;2.70;;;1.87;;
17596;SDS011;8917;50.942;6.946;2022-10-16T00:35:44;2.57;;;2.30;;
17596;SDS011;8917;50.942;6.946;2022-10-16T00:38:11;3.43;;;1.80;;
17596;SDS011;8917;50.942;6.946;2022-10-16T00:40:39;1.97;;;1.80;;
17596;SDS011;8917;50.942;6.946;2022-10-16T00:43:09;3.13;;;1.90;;
17596;SDS011;8917;50.942;6.946;2022-10-16T00:45:38;1.77;;;1.67;;
17596;SDS011;8917;50.942;6.946;2022-10-16T00:48:06;1.90;;;1.70;;
17596;SDS011;8917;50.942;6.946;2022-10-16T00:50:34;1.77;;;1.67;;
17596;SDS011;8917;50.942;6.946;2022-10-16T00:53:03;1.67;;;1.57;;
17596;SDS011;8917;50.942;6.946;2022-10-16T00:55:30;1.70;;;1.60;;
17596;SDS011;8917;50.942;6.946;2022-10-16T00:57:57;3.50;;;2.13;;
17596;SDS011;8917;50.942;6.946;2022-10-16T01:00:26;1.50;;;1.40;;
17596;SDS011;8917;50.942;6.946;2022-10-16T01:02:53;1.70;;;1.60;;
17596;SDS011;8917;50.942;6.946;2022-10-16T01:05:21;2.83;;;1.80;;
17596;SDS011;8917;50.942;6.946;2022-10-16T01:07:51;2.90;;;1.60;;
17596;SDS011;8917;50.942;6.946;2022-10-16T01:10:24;4.30;;;1.70;;
17596;SDS011;8917;50.942;6.946;2022-10-16T01:12:54;1.50;;;1.40;;
17596;SDS011;8917;50.942;6.946;2022-10-16T01:15:25;2.10;;;1.63;;
17596;SDS011;8917;50.942;6.946;2022-10-16T01:17:57;2.90;;;1.87;;
17596;SDS011;8917;50.942;6.946;2022-10-16T01:20:26;1.60;;;1.50;;
17596;SDS011;8917;50.942;6.946;2022-10-16T01:22:59;1.70;;;1.60;;
17596;SDS011;8917;50.942;6.946;2022-10-16T01:25:35;2.60;;;1.33;;
17596;SDS011;8917;50.942;6.946;2022-10-16T01:28:05;2.00;;;1.57;;
17596;SDS011;8917;50.942;6.946;2022-10-16T01:30:35;1.33;;;1.23;;
17596;SDS011;8917;50.942;6.946;2022-10-16T01:33:04;1.67;;;1.57;;
17596;SDS011;8917;50.942;6.946;2022-10-16T01:35:34;2.30;;;1.30;;
17596;SDS011;8917;50.942;6.946;2022-10-16T01:38:03;1.80;;;1.50;;
17596;SDS011;8917;50.942;6.946;2022-10-16T01:40:31;2.27;;;1.50;;
17596;SDS011;8917;50.942;6.946;2022-10-16T01:43:00;2.20;;;1.70;;
17596;SDS011;8917;50.942;6.946;2022-10-16T01:45:29;1.60;;;1.50;;
17596;SDS011;8917;50.942;6.946;2022-10-16T01:47:58;2.27;;;1.37;;
17596;SDS011;8917;50.942;6.946;2022-10-16T01:50:29;2.10;;;1.50;;
17596;SDS011;8917;50.942;6.946;2022-10-16T01:52:58;2.37;;;1.50;;
17596;SDS011;8917;50.942;6.946;2022-10-16T01:55:27;1.53;;;1.40;;
17596;SDS011;8917;50.942;6.946;2022-10-16T01:57:56;1.67;;;1.30;;
17596;SDS011;8917;50.942;6.946;2022-10-16T02:00:24;3.33;;;1.60;;
17596;SDS011;8917;50.942;6.946;2022-10-16T02:02:54;3.93;;;1.50;;
17596;SDS011;8917;50.942;6.946;2022-10-16T02:05:23;1.70;;;1.60;;
17596;SDS011;8917;50.942;6.946;2022-10-16T02:07:52;4.23;;;1.63;;
17596;SDS011;8917;50.942;6.946;2022-10-16T02:10:19;1.50;;;1.40;;
17596;SDS011;8917;50.942;6.946;2022-10-16T02:12:48;1.60;;;1.50;;
17596;SDS011;8917;50.942;6.946;2022-10-16T02:15:17;1.87;;;1.70;;
17596;SDS011;8917;50.942;6.946;2022-10-16T02:17:44;1.93;;;1.50;;
17596;SDS011;8917;50.942;6.946;2022-10-16T02:20:13;1.57;;;1.43;;
17596;SDS011;8917;50.942;6.946;2022-10-16T02:22:43;2.30;;;1.77;;
17596;SDS011;8917;50.942;6.946;2022-10-16T02:25:12;3.90;;;1.80;;
17596;SDS011;8917;50.942;6.946;2022-10-16T02:27:43;1.63;;;1.33;;
17596;SDS011;8917;50.942;6.946;2022-10-16T02:30:13;1.50;;;1.40;;
17596;SDS011;8917;50.942;6.946;2022-10-16T02:32:42;1.50;;;1.40;;
17596;SDS011;8917;50.942;6.946;2022-10-16T02:35:09;1.60;;;1.30;;
17596;SDS011;8917;50.942;6.946;2022-10-16T02:37:38;2.30;;;1.40;;
17596;SDS011;8917;50.942;6.946;2022-10-16T02:40:06;2.00;;;1.30;;
17596;SDS011;8917;50.942;6.946;2022-10-16T02:42:34;2.23;;;2.07;;
17596;SDS011;8917;50.942;6.946;2022-10-16T02:45:02;1.63;;;1.33;;
17596;SDS011;8917;50.942;6.946;2022-10-16T02:47:29;1.93;;;1.30;;
17596;SDS011;8917;50.942;6.946;2022-10-16T02:49:56;2.20;;;1.67;;
17596;SDS011;8917;50.942;6.946;2022-10-16T02:52:24;3.93;;;1.67;;
17596;SDS011;8917;50.942;6.946;2022-10-16T02:54:52;1.60;;;1.50;;
17596;SDS011;8917;50.942;6.946;2022-10-16T02:57:19;3.23;;;1.40;;
17596;SDS011;8917;50.942;6.946;2022-10-16T02:59:47;2.10;;;1.30;;
17596;SDS011;8917;50.942;6.946;2022-10-16T03:02:14;2.10;;;1.70;;
17596;SDS011;8917;50.942;6.946;2022-10-16T03:04:41;1.73;;;1.30;;
17596;SDS011;8917;50.942;6.946;2022-10-16T03:07:08;3.20;;;1.70;;
17596;SDS011;8917;50.942;6.946;2022-10-16T03:09:36;1.50;;;1.40;;
17596;SDS011;8917;50.942;6.946;2022-10-16T03:12:04;2.37;;;1.40;;
17596;SDS011;8917;50.942;6.946;2022-10-16T03:14:31;1.37;;;1.27;;
17596;SDS011;8917;50.942;6.946;2022-10-16T03:16:59;1.87;;;1.40;;
17596;SDS011;8917;50.942;6.946;2022-10-16T03:19:26;2.30;;;1.50;;
17596;SDS011;8917;50.942;6.946;2022-10-16T03:21:53;3.33;;;1.60;;
17596;SDS011;8917;50.942;6.946;2022-10-16T03:24:20;2.73;;;1.40;;
17596;SDS011;8917;50.942;6.946;2022-10-16T03:26:47;1.90;;;1.60;;
17596;SDS011;8917;50.942;6.946;2022-10-16T03:29:16;2.13;;;1.30;;
17596;SDS011;8917;50.942;6.946;2022-10-16T03:31:43;1.27;;;1.17;;
17596;SDS011;8917;50.942;6.946;2022-10-16T03:34:10;2.20;;;1.30;;
17596;SDS011;8917;50.942;6.946;2022-10-16T03:36:37;1.00;;;1.00;;
17596;SDS011;8917;50.942;6.946;2022-10-16T03:39:05;2.07;;;1.00;;
17596;SDS011;8917;50.942;6.946;2022-10-16T03:41:32;2.00;;;1.27;;
17596;SDS011;8917;50.942;6.946;2022-10-16T03:43:59;1.13;;;1.10;;
17596;SDS011;8917;50.942;6.946;2022-10-16T03:46:28;2.70;;;1.23;;
17596;SDS011;8917;50.942;6.946;2022-10-16T03:48:55;2.50;;;1.20;;
17596;SDS011;8917;50.942;6.946;2022-10-16T03:51:22;1.10;;;1.10;;
17596;SDS011;8917;50.942;6.946;2022-10-16T03:53:50;1.53;;;1.00;;
17596;SDS011;8917;50.942;6.946;2022-10-16T03:56:17;1.30;;;1.20;;
17596;SDS011;8917;50.942;6.946;2022-10-16T03:58:44;2.27;;;1.10;;
17596;SDS011;8917;50.942;6.946;2022-10-16T04:01:11;1.93;;;1.23;;
17596;SDS011;8917;50.942;6.946;2022-10-16T04:03:40;1.57;;;1.20;;
17596;SDS011;8917;50.942;6.946;2022-10-16T04:06:07;3.53;;;1.60;;
17596;SDS011;8917;50.942;6.946;2022-10-16T04:08:34;2.70;;;1.20;;
17596;SDS011;8917;50.942;6.946;2022-10-16T04:11:04;1.40;;;1.30;;
17596;SDS011;8917;50.942;6.946;2022-10-16T04:13:31;1.63;;;1.20;;
17596;SDS011;8917;50.942;6.946;2022-10-16T04:15:58;1.03;;;1.00;;
17596;SDS011;8917;50.942;6.946;2022-10-16T04:18:26;2.03;;;1.40;;
17596;SDS011;8917;50.942;6.946;2022-10-16T04:20:55;2.10;;;1.77;;
17596;SDS011;8917;50.942;6.946;2022-10-16T04:23:22;1.87;;;1.60;;
17596;SDS011;8917;50.942;6.946;2022-10-16T04:25:50;1.57;;;1.47;;
17596;SDS011;8917;50.942;6.946;2022-10-16T04:28:17;1.70;;;1.60;;
17596;SDS011;8917;50.942;6.946;2022-10-16T04:30:44;1.90;;;1.40;;
17596;SDS011;8917;50.942;6.946;2022-10-16T04:33:11;2.00;;;1.00;;
17596;SDS011;8917;50.942;6.946;2022-10-16T04:35:39;3.30;;;1.50;;
17596;SDS011;8917;50.942;6.946;2022-10-16T04:38:07;2.03;;;1.17;;
17596;SDS011;8917;50.942;6.946;2022-10-16T04:40:35;1.93;;;1.37;;
17596;SDS011;8917;50.942;6.946;2022-10-16T04:43:02;3.03;;;1.40;;
17596;SDS011;8917;50.942;6.946;2022-10-16T04:45:29;1.50;;;1.40;;
17596;SDS011;8917;50.942;6.946;2022-10-16T04:47:56;2.40;;;1.20;;
17596;SDS011;8917;50.942;6.946;2022-10-16T04:50:24;3.53;;;1.10;;
17596;SDS011;8917;50.942;6.946;2022-10-16T04:52:51;1.30;;;1.20;;
17596;SDS011;8917;50.942;6.946;2022-10-16T04:55:20;2.13;;;1.30;;
17596;SDS011;8917;50.942;6.946;2022-10-16T04:57:47;1.17;;;1.13;;
17596;SDS011;8917;50.942;6.946;2022-10-16T05:00:14;1.40;;;1.30;;
17596;SDS011;8917;50.942;6.946;2022-10-16T05:02:42;1.30;;;1.20;;
17596;SDS011;8917;50.942;6.946;2022-10-16T05:05:09;1.20;;;1.20;;
17596;SDS011;8917;50.942;6.946;2022-10-16T05:07:36;1.00;;;1.00;;
17596;SDS011;8917;50.942;6.946;2022-10-16T05:10:04;2.70;;;1.30;;
17596;SDS011;8917;50.942;6.946;2022-10-16T05:12:33;1.87;;;1.20;;
17596;SDS011;8917;50.942;6.946;2022-10-16T05:15:00;2.47;;;1.27;;
17596;SDS011;8917;50.942;6.946;2022-10-16T05:17:27;1.10;;;1.10;;
17596;SDS011;8917;50.942;6.946;2022-10-16T05:19:54;1.10;;;1.10;;
17596;SDS011;8917;50.942;6.946;2022-10-16T05:22:22;2.83;;;1.30;;
17596;SDS011;8917;50.942;6.946;2022-10-16T05:24:49;1.63;;;1.30;;
17596;SDS011;8917;50.942;6.946;2022-10-16T05:27:16;4.00;;;1.10;;
17596;SDS011;8917;50.942;6.946;2022-10-16T05:29:46;1.47;;;1.33;;
17596;SDS011;8917;50.942;6.946;2022-10-16T05:32:14;2.77;;;1.30;;
17596;SDS011;8917;50.942;6.946;2022-10-16T05:34:41;2.60;;;1.10;;
17596;SDS011;8917;50.942;6.946;2022-10-16T05:37:08;1.50;;;1.20;;
17596;SDS011;8917;50.942;6.946;2022-10-16T05:39:36;1.77;;;1.37;;
17596;SDS011;8917;50.942;6.946;2022-10-16T05:42:03;1.47;;;1.30;;
17596;SDS011;8917;50.942;6.946;2022-10-16T05:44:31;2.20;;;1.30;;
17596;SDS011;8917;50.942;6.946;2022-10-16T05:46:59;2.23;;;1.60;;
17596;SDS011;8917;50.942;6.946;2022-10-16T05:49:26;1.93;;;1.30;;
17596;SDS011;8917;50.942;6.946;2022-10-16T05:51:54;2.40;;;1.23;;
17596;SDS011;8917;50.942;6.946;2022-10-16T05:54:21;1.70;;;1.40;;
17596;SDS011;8917;50.942;6.946;2022-10-16T05:56:48;1.20;;;1.10;;
17596;SDS011;8917;50.942;6.946;2022-10-16T05:59:15;2.60;;;1.50;;
17596;SDS011;8917;50.942;6.946;2022-10-16T06:01:43;2.97;;;1.20;;
17596;SDS011;8917;50.942;6.946;2022-10-16T06:04:11;1.67;;;1.30;;
17596;SDS011;8917;50.942;6.946;2022-10-16T06:06:38;1.77;;;1.33;;
17596;SDS011;8917;50.942;6.946;2022-10-16T06:09:06;1.60;;;1.50;;
17596;SDS011;8917;50.942;6.946;2022-10-16T06:11:33;2.87;;;1.37;;
17596;SDS011;8917;50.942;6.946;2022-10-16T06:14:01;2.00;;;1.37;;
17596;SDS011;8917;50.942;6.946;2022-10-16T06:16:31;1.83;;;1.30;;
17596;SDS011;8917;50.942;6.946;2022-10-16T06:18:59;2.57;;;1.60;;
17596;SDS011;8917;50.942;6.946;2022-10-16T06:21:28;1.37;;;1.30;;
17596;SDS011;8917;50.942;6.946;2022-10-16T06:23:55;1.40;;;1.30;;
17596;SDS011;8917;50.942;6.946;2022-10-16T06:26:23;1.40;;;1.30;;
17596;SDS011;8917;50.942;6.946;2022-10-16T06:28:51;3.37;;;1.40;;
17596;SDS011;8917;50.942;6.946;2022-10-16T06:31:18;2.70;;;1.37;;
17596;SDS011;8917;50.942;6.946;2022-10-16T06:33:49;2.30;;;1.60;;
17596;SDS011;8917;50.942;6.946;2022-10-16T06:36:17;2.10;;;1.70;;
17596;SDS011;8917;50.942;6.946;2022-10-16T06:38:46;3.43;;;1.40;;
17596;SDS011;8917;50.942;6.946;2022-10-16T06:41:13;3.80;;;1.63;;
17596;SDS011;8917;50.942;6.946;2022-10-16T06:43:41;1.60;;;1.40;;
17596;SDS011;8917;50.942;6.946;2022-10-16T06:46:10;2.07;;;1.60;;
17596;SDS011;8917;50.942;6.946;2022-10-16T06:48:37;1.87;;;1.70;;
17596;SDS011;8917;50.942;6.946;2022-10-16T06:51:06;3.40;;;1.70;;
17596;SDS011;8917;50.942;6.946;2022-10-16T06:53:34;3.17;;;1.90;;
17596;SDS011;8917;50.942;6.946;2022-10-16T06:56:10;2.63;;;1.73;;
17596;SDS011;8917;50.942;6.946;2022-10-16T06:58:38;3.87;;;2.17;;
17596;SDS011;8917;50.942;6.946;2022-10-16T07:01:06;2.10;;;1.50;;
17596;SDS011;8917;50.942;6.946;2022-10-16T07:03:35;2.37;;;1.63;;
17596;SDS011;8917;50.942;6.946;2022-10-16T07:06:03;2.93;;;1.70;;
17596;SDS011;8917;50.942;6.946;2022-10-16T07:08:31;1.63;;;1.43;;
17596;SDS011;8917;50.942;6.946;2022-10-16T07:10:59;1.60;;;1.50;;
17596;SDS011;8917;50.942;6.946;2022-10-16T07:13:28;2.20;;;1.70;;
17596;SDS011;8917;50.942;6.946;2022-10-16T07:15:55;1.70;;;1.60;;
17596;SDS011;8917;50.942;6.946;2022-10-16T07:18:22;1.80;;;1.70;;
17596;SDS011;8917;50.942;6.946;2022-10-16T07:20:52;3.67;;;2.03;;
17596;SDS011;8917;50.942;6.946;2022-10-16T07:23:19;2.33;;;1.60;;
17596;SDS011;8917;50.942;6.946;2022-10-16T07:25:52;1.90;;;1.40;;
17596;SDS011;8917;50.942;6.946;2022-10-16T07:28:20;3.30;;;1.70;;
17596;SDS011;8917;50.942;6.946;2022-10-16T07:30:49;2.80;;;1.90;;
17596;SDS011;8917;50.942;6.946;2022-10-16T07:33:16;3.40;;;1.70;;
17596;SDS011;8917;50.942;6.946;2022-10-16T07:35:48;1.63;;;1.43;;
17596;SDS011;8917;50.942;6.946;2022-10-16T07:38:15;1.97;;;1.40;;
17596;SDS011;8917;50.942;6.946;2022-10-16T07:40:42;2.67;;;1.40;;
17596;SDS011;8917;50.942;6.946;2022-10-16T07:43:09;1.40;;;1.30;;
17596;SDS011;8917;50.942;6.946;2022-10-16T07:45:37;2.70;;;1.27;;
17596;SDS011;8917;50.942;6.946;2022-10-16T07:48:05;2.50;;;1.70;;
17596;SDS011;8917;50.942;6.946;2022-10-16T07:50:33;2.00;;;1.70;;
17596;SDS011;8917;50.942;6.946;2022-10-16T07:53:00;1.57;;;1.47;;
17596;SDS011;8917;50.942;6.946;2022-10-16T07:55:27;2.10;;;1.50;;
17596;SDS011;8917;50.942;6.946;2022-10-16T07:57:54;2.93;;;1.40;;
17596;SDS011;8917;50.942;6.946;2022-10-16T08:00:22;1.97;;;1.60;;
17596;SDS011;8917;50.942;6.946;2022-10-16T08:02:49;3.00;;;1.30;;
17596;SDS011;8917;50.942;6.946;2022-10-16T08:05:18;4.23;;;1.50;;
17596;SDS011;8917;50.942;6.946;2022-10-16T08:07:47;3.00;;;1.30;;
17596;SDS011;8917;50.942;6.946;2022-10-16T08:10:15;1.20;;;1.10;;
17596;SDS011;8917;50.942;6.946;2022-10-16T08:12:43;1.57;;;1.47;;
17596;SDS011;8917;50.942;6.946;2022-10-16T08:15:10;1.93;;;1.47;;
17596;SDS011;8917;50.942;6.946;2022-10-16T08:17:38;1.57;;;1.47;;
17596;SDS011;8917;50.942;6.946;2022-10-16T08:20:06;3.50;;;3.20;;
17596;SDS011;8917;50.942;6.946;2022-10-16T08:22:34;3.63;;;2.03;;
17596;SDS011;8917;50.942;6.946;2022-10-16T08:25:02;2.47;;;1.50;;
17596;SDS011;8917;50.942;6.946;2022-10-16T08:27:30;1.23;;;1.23;;
17596;SDS011;8917;50.942;6.946;2022-10-16T08:29:57;2.23;;;1.40;;
17596;SDS011;8917;50.942;6.946;2022-10-16T08:32:25;1.53;;;1.40;;
17596;SDS011;8917;50.942;6.946;2022-10-16T08:34:52;1.90;;;1.50;;
17596;SDS011;8917;50.942;6.946;2022-10-16T08:37:19;1.57;;;1.40;;
17596;SDS011;8917;50.942;6.946;2022-10-16T08:39:48;1.47;;;1.37;;
17596;SDS011;8917;50.942;6.946;2022-10-16T08:42:18;2.33;;;1.20;;
17596;SDS011;8917;50.942;6.946;2022-10-16T08:45:06;4.30;;;1.30;;
17596;SDS011;8917;50.942;6.946;2022-10-16T08:47:39;2.17;;;1.20;;
17596;SDS011;8917;50.942;6.946;2022-10-16T08:50:11;3.90;;;1.30;;
17596;SDS011;8917;50.942;6.946;2022-10-16T08:52:39;5.07;;;1.63;;
17596;SDS011;8917;50.942;6.946;2022-10-16T08:55:09;3.00;;;1.30;;
17596;SDS011;8917;50.942;6.946;2022-10-16T08:57:43;3.43;;;1.37;;
17596;SDS011;8917;50.942;6.946;2022-10-16T09:00:12;2.23;;;1.27;;
17596;SDS011;8917;50.942;6.946;2022-10-16T09:02:40;1.20;;;1.20;;
17596;SDS011;8917;50.942;6.946;2022-10-16T09:05:17;6.90;;;3.27;;
17596;SDS011;8917;50.942;6.946;2022-10-16T09:07:50;2.00;;;1.20;;
17596;SDS011;8917;50.942;6.946;2022-10-16T09:10:26;3.57;;;1.30;;
17596;SDS011;8917;50.942;6.946;2022-10-16T09:12:58;1.10;;;1.00;;
17596;SDS011;8917;50.942;6.946;2022-10-16T09:15:29;1.80;;;1.23;;
17596;SDS011;8917;50.942;6.946;2022-10-16T09:17:59;2.00;;;1.20;;
17596;SDS011;8917;50.942;6.946;2022-10-16T09:20:30;1.73;;;1.20;;
17596;SDS011;8917;50.942;6.946;2022-10-16T09:23:04;1.30;;;1.00;;
17596;SDS011;8917;50.942;6.946;2022-10-16T09:25:36;1.30;;;1.20;;
17596;SDS011;8917;50.942;6.946;2022-10-16T09:28:07;2.47;;;1.30;;
17596;SDS011;8917;50.942;6.946;2022-10-16T09:30:34;2.47;;;1.20;;
17596;SDS011;8917;50.942;6.946;2022-10-16T09:33:01;2.63;;;1.27;;
17596;SDS011;8917;50.942;6.946;2022-10-16T09:35:31;1.27;;;1.17;;
17596;SDS011;8917;50.942;6.946;2022-10-16T09:37:59;1.77;;;1.07;;
17596;SDS011;8917;50.942;6.946;2022-10-16T09:40:26;2.10;;;1.00;;
17596;SDS011;8917;50.942;6.946;2022-10-16T09:43:00;2.50;;;1.10;;
17596;SDS011;8917;50.942;6.946;2022-10-16T09:45:28;2.93;;;1.20;;
17596;SDS011;8917;50.942;6.946;2022-10-16T09:47:55;1.07;;;0.97;;
17596;SDS011;8917;50.942;6.946;2022-10-16T09:50:24;2.40;;;1.07;;
17596;SDS011;8917;50.942;6.946;2022-10-16T09:53:02;1.97;;;1.20;;
17596;SDS011;8917;50.942;6.946;2022-10-16T09:55:29;1.40;;;1.30;;
17596;SDS011;8917;50.942;6.946;2022-10-16T09:57:58;2.47;;;1.10;;
17596;SDS011;8917;50.942;6.946;2022-10-16T10:00:26;0.97;;;0.93;;
17596;SDS011;8917;50.942;6.946;2022-10-16T10:02:55;2.43;;;1.10;;
17596;SDS011;8917;50.942;6.946;2022-10-16T10:05:23;1.57;;;1.00;;
17596;SDS011;8917;50.942;6.946;2022-10-16T10:07:54;1.33;;;1.00;;
17596;SDS011;8917;50.942;6.946;2022-10-16T10:10:23;2.13;;;1.07;;
17596;SDS011;8917;50.942;6.946;2022-10-16T10:12:51;1.43;;;0.93;;
17596;SDS011;8917;50.942;6.946;2022-10-16T10:15:19;1.93;;;1.00;;
17596;SDS011;8917;50.942;6.946;2022-10-16T10:17:49;1.33;;;1.10;;
17596;SDS011;8917;50.942;6.946;2022-10-16T10:20:23;3.10;;;0.97;;
17596;SDS011;8917;50.942;6.946;2022-10-16T10:22:52;2.87;;;1.03;;
17596;SDS011;8917;50.942;6.946;2022-10-16T10:25:29;1.00;;;0.90;;
17596;SDS011;8917;50.942;6.946;2022-10-16T10:28:00;1.53;;;0.97;;
17596;SDS011;8917;50.942;6.946;2022-10-16T10:30:33;2.90;;;1.10;;
17596;SDS011;8917;50.942;6.946;2022-10-16T10:33:08;3.60;;;1.00;;
17596;SDS011;8917;50.942;6.946;2022-10-16T10:35:39;2.80;;;1.17;;
17596;SDS011;8917;50.942;6.946;2022-10-16T10:38:13;2.20;;;1.10;;
17596;SDS011;8917;50.942;6.946;2022-10-16T10:40:45;2.93;;;0.90;;
17596;SDS011;8917;50.942;6.946;2022-10-16T10:43:17;2.17;;;1.00;;
17596;SDS011;8917;50.942;6.946;2022-10-16T10:45:49;1.73;;;1.10;;
17596;SDS011;8917;50.942;6.946;2022-10-16T10:48:26;4.83;;;1.50;;
17596;SDS011;8917;50.942;6.946;2022-10-16T10:51:00;2.03;;;1.20;;
17596;SDS011;8917;50.942;6.946;2022-10-16T10:53:35;1.47;;;0.90;;
17596;SDS011;8917;50.942;6.946;2022-10-16T10:56:07;1.60;;;0.90;;
17596;SDS011;8917;50.942;6.946;2022-10-16T10:58:45;1.47;;;1.00;;
17596;SDS011;8917;50.942;6.946;2022-10-16T11:01:20;1.00;;;1.00;;
17596;SDS011;8917;50.942;6.946;2022-10-16T11:03:55;2.77;;;1.33;;
17596;SDS011;8917;50.942;6.946;2022-10-16T11:06:24;1.77;;;0.90;;
17596;SDS011;8917;50.942;6.946;2022-10-16T11:08:53;1.10;;;1.00;;
17596;SDS011;8917;50.942;6.946;2022-10-16T11:11:24;2.67;;;1.17;;
17596;SDS011;8917;50.942;6.946;2022-10-16T11:13:53;2.80;;;2.60;;
17596;SDS011;8917;50.942;6.946;2022-10-16T11:16:25;2.50;;;1.00;;
17596;SDS011;8917;50.942;6.946;2022-10-16T11:18:55;3.73;;;1.00;;
17596;SDS011;8917;50.942;6.946;2022-10-16T11:21:23;0.83;;;0.83;;
17596;SDS011;8917;50.942;6.946;2022-10-16T11:23:51;1.90;;;0.90;;
17596;SDS011;8917;50.942;6.946;2022-10-16T11:26:21;1.27;;;0.83;;
17596;SDS011;8917;50.942;6.946;2022-10-16T11:28:50;1.50;;;1.00;;
17596;SDS011;8917;50.942;6.946;2022-10-16T11:31:22;0.73;;;0.73;;
17596;SDS011;8917;50.942;6.946;2022-10-16T11:33:55;2.43;;;0.90;;
17596;SDS011;8917;50.942;6.946;2022-10-16T11:36:25;1.00;;;1.00;;
17596;SDS011;8917;50.942;6.946;2022-10-16T11:38:56;2.93;;;1.20;;
17596;SDS011;8917;50.942;6.946;2022-10-16T11:41:27;3.27;;;0.80;;
17596;SDS011;8917;50.942;6.946;2022-10-16T11:43:58;3.30;;;1.00;;
17596;SDS011;8917;50.942;6.946;2022-10-16T11:46:29;1.47;;;0.80;;
17596;SDS011;8917;50.942;6.946;2022-10-16T11:49:02;1.20;;;1.00;;
17596;SDS011;8917;50.942;6.946;2022-10-16T11:51:31;2.33;;;1.03;;
17596;SDS011;8917;50.942;6.946;2022-10-16T11:54:02;2.00;;;0.90;;
17596;SDS011;8917;50.942;6.946;2022-10-16T11:56:31;1.17;;;1.03;;
17596;SDS011;8917;50.942;6.946;2022-10-16T11:59:00;1.77;;;1.00;;
17596;SDS011;8917;50.942;6.946;2022-10-16T12:01:30;2.10;;;0.97;;
17596;SDS011;8917;50.942;6.946;2022-10-16T12:04:13;1.03;;;0.93;;
17596;SDS011;8917;50.942;6.946;2022-10-16T12:06:42;1.30;;;1.00;;
17596;SDS011;8917;50.942;6.946;2022-10-16T12:09:13;1.30;;;0.90;;
17596;SDS011;8917;50.942;6.946;2022-10-16T12:11:42;1.70;;;0.90;;
17596;SDS011;8917;50.942;6.946;2022-10-16T12:16:52;3.77;;;0.90;;
17596;SDS011;8917;50.942;6.946;2022-10-16T12:19:21;3.90;;;0.90;;
17596;SDS011;8917;50.942;6.946;2022-10-16T12:21:49;2.37;;;0.93;;
17596;SDS011;8917;50.942;6.946;2022-10-16T12:24:29;2.30;;;1.00;;
17596;SDS011;8917;50.942;6.946;2022-10-16T12:26:57;1.10;;;1.00;;
17596;SDS011;8917;50.942;6.946;2022-10-16T12:29:28;1.47;;;0.90;;
17596;SDS011;8917;50.942;6.946;2022-10-16T12:31:56;2.20;;;1.00;;
17596;SDS011;8917;50.942;6.946;2022-10-16T12:34:27;2.37;;;1.33;;
17596;SDS011;8917;50.942;6.946;2022-10-16T12:36:56;0.90;;;0.90;;
17596;SDS011;8917;50.942;6.946;2022-10-16T12:39:34;1.27;;;1.10;;
17596;SDS011;8917;50.942;6.946;2022-10-16T12:42:03;1.27;;;1.10;;
17596;SDS011;8917;50.942;6.946;2022-10-16T12:44:34;0.80;;;0.77;;
17596;SDS011;8917;50.942;6.946;2022-10-16T12:47:02;1.70;;;0.70;;
17596;SDS011;8917;50.942;6.946;2022-10-16T12:49:36;2.03;;;0.93;;
17596;SDS011;8917;50.942;6.946;2022-10-16T12:52:04;1.00;;;0.90;;
17596;SDS011;8917;50.942;6.946;2022-10-16T12:54:49;1.47;;;0.90;;
17596;SDS011;8917;50.942;6.946;2022-10-16T12:57:26;0.70;;;0.70;;
17596;SDS011;8917;50.942;6.946;2022-10-16T12:59:59;0.80;;;0.80;;
17596;SDS011;8917;50.942;6.946;2022-10-16T13:02:48;1.77;;;1.07;;
17596;SDS011;8917;50.942;6.946;2022-10-16T13:05:28;1.00;;;1.00;;
17596;SDS011;8917;50.942;6.946;2022-10-16T13:08:00;1.93;;;0.93;;
17596;SDS011;8917;50.942;6.946;2022-10-16T13:10:33;1.17;;;0.90;;
17596;SDS011;8917;50.942;6.946;2022-10-16T13:13:06;1.77;;;0.90;;
17596;SDS011;8917;50.942;6.946;2022-10-16T13:15:46;1.23;;;0.80;;
17596;SDS011;8917;50.942;6.946;2022-10-16T13:18:16;1.23;;;0.90;;
17596;SDS011;8917;50.942;6.946;2022-10-16T13:20:55;1.43;;;1.00;;
17596;SDS011;8917;50.942;6.946;2022-10-16T13:23:24;2.57;;;0.93;;
17596;SDS011;8917;50.942;6.946;2022-10-16T13:25:58;1.00;;;0.87;;
17596;SDS011;8917;50.942;6.946;2022-10-16T13:28:28;1.77;;;1.00;;
17596;SDS011;8917;50.942;6.946;2022-10-16T13:30:58;0.70;;;0.70;;
17596;SDS011;8917;50.942;6.946;2022-10-16T13:33:27;1.57;;;1.07;;
17596;SDS011;8917;50.942;6.946;2022-10-16T13:35:58;2.40;;;2.20;;
17596;SDS011;8917;50.942;6.946;2022-10-16T13:38:27;2.00;;;1.57;;
17596;SDS011;8917;50.942;6.946;2022-10-16T13:40:55;2.87;;;1.00;;
17596;SDS011;8917;50.942;6.946;2022-10-16T13:43:25;2.47;;;1.10;;
17596;SDS011;8917;50.942;6.946;2022-10-16T13:45:54;1.00;;;1.00;;
17596;SDS011;8917;50.942;6.946;2022-10-16T13:48:22;1.93;;;0.93;;
17596;SDS011;8917;50.942;6.946;2022-10-16T13:51:01;1.87;;;1.03;;
17596;SDS011;8917;50.942;6.946;2022-10-16T13:53:29;1.33;;;1.10;;
17596;SDS011;8917;50.942;6.946;2022-10-16T13:55:57;1.23;;;0.90;;
17596;SDS011;8917;50.942;6.946;2022-10-16T13:58:25;1.47;;;1.10;;
17596;SDS011;8917;50.942;6.946;2022-10-16T14:00:56;2.67;;;1.10;;
17596;SDS011;8917;50.942;6.946;2022-10-16T14:03:24;1.40;;;1.20;;
17596;SDS011;8917;50.942;6.946;2022-10-16T14:05:52;1.10;;;1.00;;
17596;SDS011;8917;50.942;6.946;2022-10-16T14:08:22;1.53;;;1.10;;
17596;SDS011;8917;50.942;6.946;2022-10-16T14:10:50;1.30;;;0.80;;
17596;SDS011;8917;50.942;6.946;2022-10-16T14:13:19;1.27;;;1.10;;
17596;SDS011;8917;50.942;6.946;2022-10-16T14:15:47;2.10;;;1.00;;
17596;SDS011;8917;50.942;6.946;2022-10-16T14:18:16;0.83;;;0.83;;
17596;SDS011;8917;50.942;6.946;2022-10-16T14:20:45;2.17;;;1.00;;
17596;SDS011;8917;50.942;6.946;2022-10-16T14:23:20;0.97;;;0.93;;
17596;SDS011;8917;50.942;6.946;2022-10-16T14:25:49;1.43;;;0.97;;
17596;SDS011;8917;50.942;6.946;2022-10-16T14:28:17;3.37;;;1.37;;
17596;SDS011;8917;50.942;6.946;2022-10-16T14:30:49;2.03;;;1.17;;
17596;SDS011;8917;50.942;6.946;2022-10-16T14:33:19;1.80;;;0.73;;
17596;SDS011;8917;50.942;6.946;2022-10-16T14:35:56;1.27;;;0.97;;
17596;SDS011;8917;50.942;6.946;2022-10-16T14:38:24;4.47;;;1.10;;
17596;SDS011;8917;50.942;6.946;2022-10-16T14:40:53;1.60;;;1.00;;
17596;SDS011;8917;50.942;6.946;2022-10-16T14:43:22;1.80;;;1.70;;
17596;SDS011;8917;50.942;6.946;2022-10-16T14:45:50;1.30;;;1.20;;
17596;SDS011;8917;50.942;6.946;2022-10-16T14:48:18;1.87;;;1.20;;
17596;SDS011;8917;50.942;6.946;2022-10-16T14:50:46;1.20;;;1.10;;
17596;SDS011;8917;50.942;6.946;2022-10-16T14:53:13;1.17;;;1.00;;
17596;SDS011;8917;50.942;6.946;2022-10-16T14:55:41;0.90;;;0.90;;
17596;SDS011;8917;50.942;6.946;2022-10-16T14:58:11;1.30;;;1.10;;
17596;SDS011;8917;50.942;6.946;2022-10-16T15:00:40;1.73;;;1.60;;
17596;SDS011;8917;50.942;6.946;2022-10-16T15:03:07;2.47;;;1.20;;
17596;SDS011;8917;50.942;6.946;2022-10-16T15:05:35;3.10;;;1.30;;
17596;SDS011;8917;50.942;6.946;2022-10-16T15:08:02;1.67;;;1.07;;
17596;SDS011;8917;50.942;6.946;2022-10-16T15:10:30;1.33;;;1.20;;
17596;SDS011;8917;50.942;6.946;2022-10-16T15:12:58;1.00;;;1.00;;
17596;SDS011;8917;50.942;6.946;2022-10-16T15:15:28;1.57;;;1.20;;